Colorado Springs, CO

1:09 PM MDT on May 22, 2015 (GMT -0600)
Usaf Academy | | Change Station
CLOSE
Current Station
Airport
Location: Air Force Academy,
Elevation: 6572 ft
Nearby Weather Stations

Elev 6572 ft 38.97 °N, 104.81 °W | Updated 11 minutes ago

Overcast
Overcast
55 °F
Feels Like 55 °F
N
5
Wind Variable Wind from NW

Today
High -- | Low -- °F
--% Chance of Precip.
Yesterday
High -- | Low -- °F
Precip. -- in
5:41 AM 8:11 PM
Waxing Crescent, 23% visible
Pressure 29.88 in
Visibility 10.0 miles
Clouds Few 1800 ft
Few 2400 ft
Scattered Clouds 5000 ft
Scattered Clouds 8000 ft
Scattered Clouds 20000 ft
Dew Point 44 °F
Humidity 65%
Rainfall 0.38 in
Snow Depth Not available.
UV 10 out of 12
Pollen 4.90 out of 12
Air Quality Not available.
Flu Activity Sporadic
METAR KAFF 221858Z 31004KT 10SM FEW018 FEW024 SCT050 SCT080 SCT200 13/06 A3000 RMK AO2A DZE03 SLP117 P0000 T01280064

More Conditions Fewer Conditions

Pressure 29.88 in
Visibility 10.0 miles
Clouds Few 1800 ft
Few 2400 ft
Scattered Clouds 5000 ft
Scattered Clouds 8000 ft
Scattered Clouds 20000 ft
Dew Point 44 °F
Humidity 65%
Rainfall 0.38 in
Snow Depth Not available.
UV 10 out of 12
Pollen 4.90 out of 12
Air Quality Not available.
Flu Activity Sporadic
METAR KAFF 221858Z 31004KT 10SM FEW018 FEW024 SCT050 SCT080 SCT200 13/06 A3000 RMK AO2A DZE03 SLP117 P0000 T01280064

More Conditions Fewer Conditions

10-Day Weather Forecast

Almanac

Astronomy

May. 22, 2015 Rise Set
Actual Time
Civil Twilight
Nautical Twilight
Astronomical Twilight
Moon
Length of Visible Light
Length of Day
Tomorrow will be .
, % of the Moon is Illuminated

Today's Extremes

State Highs State Lows

Community

WunderPhotos

Upload Photos

1,823,278 photos uploaded!

WunderBlogs® & News

Nearby

Air Quality

  Air Quality AQ Index Pollutant
Not available.

Snow Depth

Station Depth Elevation

Earthquake Activity

City Distance Mag. Time & Date
Minimum magnitude displayed is 2.5.

Coastal Water Temperatures

Place Temperature

Stations

Nearby Weather Stations

Station Location Temp. Windchill Dew Point Humidity Wind Precip. Elev Updated Type